Aidablu — IBWX — position and weather

sailwx.info

Track history (hours):
 
Tides and Currents Weather Stations Pressure Air Temp Water Temp Dewpoint Dewpoint Depression Visibility Wind Speed Wind Dir Waves Ship Positions

Aidablu

Last reported at 2016-Sep-29 07:16 UTC. Time now 2016-Sep-29 20:19 UTC.
Position N 41°47' E 006°40'.

Length 252 m; draft 7.3 m.

Type: Ship. MMSI: 247282500.

Date/timePositionNaut miles runAvg speedWind from/ knotsBaromVisibWave heightAir tempDewpointWater temp
2016-Sep-29 07:16N 41°47' E 006°40'137 4.3
2016-Sep-27 23:10N 43°04' E 009°14'3910.9
2016-Sep-27 19:33N 43°22' E 010°02'16 3.1
2016-Sep-27 14:31N 43°33' E 010°18'0 0.0
2016-Sep-27 13:31N 43°33' E 010°18'0 0.0
2016-Sep-27 10:32N 43°33' E 010°18'53 5.3
2016-Sep-27 00:34N 42°41' E 010°07'  
2016-Sep-24 19:33N 38°33' E 013°33'1414.3
2016-Sep-24 18:33N 38°19' E 013°29'1212.4
2016-Sep-24 17:33N 38°07' E 013°23'1 1.0
2016-Sep-24 16:32N 38°08' E 013°22'0 0.0
2016-Sep-24 14:31N 38°08' E 013°22'0 0.0
2016-Sep-24 12:33N 38°08' E 013°22'0 0.0
2016-Sep-24 10:32N 38°08' E 013°22'0 0.0
2016-Sep-24 09:32N 38°08' E 013°22'  
2016-Sep-22 04:29N 39°27' E 004°02'7 7.4
2016-Sep-22 03:32N 39°24' E 003°54'23 7.8
2016-Sep-22 00:33N 39°13' E 003°28'8 8.0
2016-Sep-21 23:33N 39°13' E 003°18'1413.5
2016-Sep-21 22:33N 39°14' E 003°00'25 8.4
2016-Sep-21 19:33N 39°33' E 002°38'0 0.0
2016-Sep-21 16:32N 39°33' E 002°38'0 0.0
2016-Sep-21 09:32N 39°33' E 002°38'0 0.0
2016-Sep-21 08:32N 39°33' E 002°38'0 0.0
2016-Sep-21 03:32N 39°33' E 002°38'0 0.2
2016-Sep-21 02:33N 39°33' E 002°38'  
Track history (hours):
 
Tides and Currents Weather Stations Pressure Air Temp Water Temp Dewpoint Dewpoint Depression Visibility Wind Speed Wind Dir Waves Ship Positions

Aidablu

Last reported at 2016-Sep-29 07:16 UTC. Time now 2016-Sep-29 20:19 UTC.
Position N 41°47' E 006°40'.

Length 252 m; draft 7.3 m.

Type: Ship. MMSI: 247282500.

Date/timePositionNaut miles runAvg speedWind from/ knotsBaromVisibWave heightAir tempDewpointWater temp
2016-Sep-29 07:16N 41°47' E 006°40'137 4.3
2016-Sep-27 23:10N 43°04' E 009°14'3910.9
2016-Sep-27 19:33N 43°22' E 010°02'16 3.1
2016-Sep-27 14:31N 43°33' E 010°18'0 0.0
2016-Sep-27 13:31N 43°33' E 010°18'0 0.0
2016-Sep-27 10:32N 43°33' E 010°18'53 5.3
2016-Sep-27 00:34N 42°41' E 010°07'  
2016-Sep-24 19:33N 38°33' E 013°33'1414.3
2016-Sep-24 18:33N 38°19' E 013°29'1212.4
2016-Sep-24 17:33N 38°07' E 013°23'1 1.0
2016-Sep-24 16:32N 38°08' E 013°22'0 0.0
2016-Sep-24 14:31N 38°08' E 013°22'0 0.0
2016-Sep-24 12:33N 38°08' E 013°22'0 0.0
2016-Sep-24 10:32N 38°08' E 013°22'0 0.0
2016-Sep-24 09:32N 38°08' E 013°22'  
2016-Sep-22 04:29N 39°27' E 004°02'7 7.4
2016-Sep-22 03:32N 39°24' E 003°54'23 7.8
2016-Sep-22 00:33N 39°13' E 003°28'8 8.0
2016-Sep-21 23:33N 39°13' E 003°18'1413.5
2016-Sep-21 22:33N 39°14' E 003°00'25 8.4
2016-Sep-21 19:33N 39°33' E 002°38'0 0.0
2016-Sep-21 16:32N 39°33' E 002°38'0 0.0
2016-Sep-21 09:32N 39°33' E 002°38'0 0.0
2016-Sep-21 08:32N 39°33' E 002°38'0 0.0
2016-Sep-21 03:32N 39°33' E 002°38'0 0.2
2016-Sep-21 02:33N 39°33' E 002°38'  

Dump ship's entire track history